createdAt,value
2023-06-19T00:02:42.512Z,5.25
2023-06-19T00:07:45.238Z,6.70
2023-06-19T00:12:49.331Z,6.30
2023-06-19T00:17:52.011Z,5.55
2023-06-19T00:22:54.842Z,5.25
2023-06-19T00:27:58.860Z,4.75
2023-06-19T00:33:04.310Z,5.82
2023-06-19T00:38:07.706Z,7.20
2023-06-19T00:43:11.815Z,6.00
2023-06-19T00:48:14.565Z,6.40
2023-06-19T00:53:17.267Z,5.40
2023-06-19T00:58:22.191Z,5.63
2023-06-19T01:03:24.887Z,5.65
2023-06-19T01:08:44.093Z,5.65
2023-06-19T01:13:51.419Z,5.55
2023-06-19T01:18:54.155Z,5.85
2023-06-19T01:23:58.210Z,5.32
2023-06-19T01:29:01.021Z,5.20
2023-06-19T01:34:06.637Z,6.53
2023-06-19T01:39:11.332Z,5.32
2023-06-19T01:44:14.023Z,5.55
2023-06-19T01:49:16.782Z,5.22
2023-06-19T01:54:20.828Z,5.43
2023-06-19T01:59:24.676Z,5.60
2023-06-19T02:04:27.432Z,5.43
2023-06-19T02:09:31.470Z,5.07
2023-06-19T02:14:34.158Z,5.57
2023-06-19T02:19:37.436Z,5.93
2023-06-19T02:24:41.494Z,5.05
2023-06-19T02:29:44.290Z,6.60
2023-06-19T02:34:47.207Z,6.00
2023-06-19T02:39:51.243Z,6.15
2023-06-19T02:44:53.947Z,6.15
2023-06-19T02:49:56.650Z,5.97
2023-06-19T02:55:01.070Z,7.38
2023-06-19T03:00:07.016Z,6.60
2023-06-19T03:05:10.754Z,7.00
2023-06-19T03:10:14.855Z,7.57
2023-06-19T03:15:18.250Z,6.47
2023-06-19T03:20:25.210Z,5.68
2023-06-19T03:25:35.882Z,6.90
2023-06-19T03:30:39.381Z,6.97
2023-06-19T03:35:42.791Z,7.28
2023-06-19T03:40:53.517Z,6.78
2023-06-19T03:45:57.283Z,5.93
2023-06-19T03:51:01.797Z,6.78
2023-06-19T03:56:06.557Z,6.90
2023-06-19T04:01:09.480Z,7.03
2023-06-19T04:06:12.195Z,5.57
2023-06-19T04:11:17.637Z,7.32
2023-06-19T04:16:21.433Z,7.07
2023-06-19T04:21:24.628Z,6.13
2023-06-19T04:26:28.712Z,5.50
2023-06-19T04:31:31.862Z,5.25
2023-06-19T04:36:34.721Z,4.95
2023-06-19T04:41:39.470Z,5.78
2023-06-19T04:46:42.715Z,5.13
2023-06-19T04:51:45.463Z,6.78
2023-06-19T04:56:49.446Z,4.97
2023-06-19T05:01:54.905Z,4.13
2023-06-19T05:06:57.614Z,4.13
2023-06-19T05:12:01.630Z,5.95
2023-06-19T05:17:04.481Z,4.22
2023-06-19T05:22:07.752Z,4.03
2023-06-19T05:27:11.799Z,3.60
2023-06-19T05:32:14.974Z,3.55
2023-06-19T05:37:18.176Z,3.47
2023-06-19T05:42:22.212Z,3.22
2023-06-19T05:47:26.857Z,3.10
2023-06-19T05:52:29.835Z,4.32
2023-06-19T05:57:34.634Z,3.53
2023-06-19T06:02:37.369Z,3.58
2023-06-19T06:07:41.586Z,4.70
2023-06-19T06:12:45.978Z,3.53
2023-06-19T06:17:48.643Z,4.78
2023-06-19T06:22:51.442Z,3.13
2023-06-19T06:27:55.424Z,3.13
2023-06-19T06:32:58.115Z,3.40
2023-06-19T06:38:00.834Z,2.92
2023-06-19T06:43:04.852Z,2.47
2023-06-19T06:48:08.123Z,2.55
2023-06-19T06:53:10.961Z,2.53
2023-06-19T06:58:15.373Z,2.45
2023-06-19T07:03:19.128Z,2.00
2023-06-19T07:08:21.976Z,2.25
2023-06-19T07:13:26.764Z,1.70
2023-06-19T07:18:29.612Z,1.80
2023-06-19T07:23:32.336Z,3.22
2023-06-19T07:28:37.244Z,3.67
2023-06-19T07:33:39.950Z,1.95
2023-06-19T07:38:42.597Z,2.85
2023-06-19T07:43:46.661Z,1.70
2023-06-19T07:48:49.364Z,2.55
2023-06-19T07:53:52.036Z,2.15
2023-06-19T07:58:56.180Z,1.55
2023-06-19T08:03:58.934Z,3.53
2023-06-19T08:09:01.612Z,2.22
2023-06-19T08:14:05.696Z,2.20
2023-06-19T08:19:08.353Z,2.22
2023-06-19T08:24:11.034Z,2.30
2023-06-19T08:29:15.206Z,2.45
2023-06-19T08:34:17.884Z,3.50
2023-06-19T08:39:21.284Z,2.35
2023-06-19T08:44:25.373Z,2.63
2023-06-19T08:49:28.602Z,2.33
2023-06-19T08:54:31.384Z,2.17
2023-06-19T08:59:35.502Z,3.60
2023-06-19T09:04:38.142Z,2.13
2023-06-19T09:09:46.545Z,2.78
2023-06-19T09:14:50.546Z,2.28
2023-06-19T09:19:54.039Z,2.78
2023-06-19T09:25:02.151Z,2.65
2023-06-19T09:30:17.574Z,3.20
2023-06-19T09:35:21.873Z,4.00
2023-06-19T09:40:26.276Z,2.92
2023-06-19T09:45:31.538Z,2.95
2023-06-19T09:50:35.664Z,3.25
2023-06-19T09:55:39.870Z,3.67
2023-06-19T10:00:44.986Z,2.95
2023-06-19T10:05:47.724Z,3.15
2023-06-19T10:10:50.800Z,3.40
2023-06-19T10:15:54.802Z,2.50
2023-06-19T10:20:57.572Z,7.47
2023-06-19T10:26:03.007Z,11.65
2023-06-19T10:31:09.139Z,26.90
2023-06-19T10:36:16.267Z,18.90
2023-06-19T10:41:19.023Z,16.98
2023-06-19T10:46:24.931Z,15.30
2023-06-19T10:51:28.758Z,14.40
2023-06-19T10:56:31.451Z,12.48
2023-06-19T11:01:45.177Z,12.73
2023-06-19T11:06:51.322Z,14.07
2023-06-19T11:12:00.727Z,14.13
2023-06-19T11:17:05.340Z,9.70
2023-06-19T11:22:08.921Z,12.65
2023-06-19T11:27:18.782Z,10.70
2023-06-19T11:32:26.213Z,11.48
2023-06-19T11:37:31.486Z,7.85
2023-06-19T11:42:34.614Z,7.40
2023-06-19T11:47:38.986Z,8.52
2023-06-19T11:52:42.051Z,9.02
2023-06-19T11:57:44.846Z,6.90
2023-06-19T12:02:49.321Z,7.88
2023-06-19T12:07:52.283Z,6.60
2023-06-19T12:12:56.009Z,6.22
2023-06-19T12:18:00.029Z,7.07
2023-06-19T12:23:02.944Z,6.65
2023-06-19T12:28:09.271Z,5.40
2023-06-19T12:33:13.548Z,6.10
2023-06-19T12:38:16.244Z,5.70
2023-06-19T12:43:18.921Z,5.57
2023-06-19T12:48:22.932Z,4.68
2023-06-19T12:53:29.952Z,4.65
2023-06-19T12:58:32.747Z,4.63
2023-06-19T13:03:36.837Z,6.05
2023-06-19T13:08:39.582Z,5.35
2023-06-19T13:13:42.261Z,6.25
2023-06-19T13:18:46.281Z,4.93
2023-06-19T13:23:50.118Z,4.75
2023-06-19T13:28:52.853Z,4.50
2023-06-19T13:33:56.838Z,4.63
2023-06-19T13:38:59.628Z,3.83
2023-06-19T13:44:02.771Z,5.28
2023-06-19T13:49:06.867Z,3.97
2023-06-19T13:54:09.558Z,5.45
2023-06-19T13:59:12.287Z,4.38
2023-06-19T14:04:16.264Z,4.05
2023-06-19T14:09:18.995Z,4.45
2023-06-19T14:14:21.850Z,4.70
2023-06-19T14:19:26.284Z,6.05
2023-06-19T14:24:29.076Z,5.53
2023-06-19T14:29:56.708Z,4.22
2023-06-19T14:35:00.713Z,5.15
2023-06-19T14:40:03.495Z,4.53
2023-06-19T14:45:06.677Z,5.40
2023-06-19T14:50:11.361Z,4.05
2023-06-19T14:55:14.004Z,4.00
2023-06-19T15:00:17.052Z,5.60
2023-06-19T15:05:21.280Z,4.70
2023-06-19T15:10:24.449Z,4.30
2023-06-19T15:15:27.452Z,3.60
2023-06-19T15:20:31.736Z,4.38
2023-06-19T15:25:34.489Z,4.40
2023-06-19T15:30:37.220Z,3.78
2023-06-19T15:35:42.385Z,3.92
2023-06-19T15:40:45.344Z,3.88
2023-06-19T15:45:48.128Z,3.70
2023-06-19T15:50:52.200Z,4.35
2023-06-19T15:55:54.882Z,4.20
2023-06-19T16:00:57.582Z,5.10
2023-06-19T16:06:07.789Z,4.07
2023-06-19T16:11:12.088Z,4.30
2023-06-19T16:16:14.852Z,4.38
2023-06-19T16:21:19.588Z,3.63
2023-06-19T16:26:22.276Z,5.88
2023-06-19T16:31:25.086Z,3.78
2023-06-19T16:36:29.103Z,4.00
2023-06-19T16:41:31.830Z,3.83
2023-06-19T16:46:34.585Z,4.07
2023-06-19T16:51:38.667Z,3.80
2023-06-19T16:56:41.364Z,4.10
2023-06-19T17:01:44.420Z,3.38
2023-06-19T17:06:48.537Z,3.85
2023-06-19T17:11:52.879Z,4.10
2023-06-19T17:16:55.840Z,6.00
2023-06-19T17:21:59.924Z,5.00
2023-06-19T17:27:02.692Z,4.47
2023-06-19T17:32:06.057Z,3.92
2023-06-19T17:37:10.284Z,3.53
2023-06-19T17:42:12.977Z,3.72
2023-06-19T17:47:16.682Z,4.43
2023-06-19T17:52:20.864Z,3.65
2023-06-19T17:57:23.999Z,5.82
2023-06-19T18:02:26.874Z,4.60
2023-06-19T18:07:30.970Z,3.50
2023-06-19T18:12:33.883Z,3.67
2023-06-19T18:17:36.655Z,4.25
2023-06-19T18:22:40.804Z,3.97
2023-06-19T18:27:43.493Z,3.58
2023-06-19T18:32:46.253Z,4.22
2023-06-19T18:37:50.436Z,4.55
2023-06-19T18:42:53.193Z,4.88
2023-06-19T18:47:55.900Z,5.15
2023-06-19T18:53:00.065Z,3.92
2023-06-19T18:58:02.770Z,5.07
2023-06-19T19:03:05.535Z,8.20
2023-06-19T19:08:11.509Z,5.05
2023-06-19T19:13:14.253Z,5.55
2023-06-19T19:18:17.112Z,4.68
2023-06-19T19:23:21.265Z,4.97
2023-06-19T19:28:24.008Z,6.75
2023-06-19T19:33:26.839Z,6.35
2023-06-19T19:38:30.959Z,4.38
2023-06-19T19:43:33.802Z,9.18
2023-06-19T19:48:36.564Z,5.28
2023-06-19T19:53:40.621Z,7.15
2023-06-19T19:58:43.309Z,5.35
2023-06-19T20:03:46.716Z,4.97
2023-06-19T20:08:50.859Z,6.72
2023-06-19T20:13:53.549Z,4.88
2023-06-19T20:18:56.298Z,6.13
2023-06-19T20:24:00.528Z,5.53
2023-06-19T20:29:03.307Z,5.53
2023-06-19T20:34:07.345Z,7.00
2023-06-19T20:39:11.393Z,6.07
2023-06-19T20:44:14.722Z,5.65
2023-06-19T20:49:17.556Z,5.10
2023-06-19T20:54:21.649Z,5.78
2023-06-19T20:59:24.308Z,6.10
2023-06-19T21:04:27.028Z,5.20
2023-06-19T21:09:31.323Z,3.88
2023-06-19T21:14:35.170Z,5.53
2023-06-19T21:19:37.859Z,5.22
2023-06-19T21:24:42.074Z,5.10
2023-06-19T21:29:44.901Z,8.38
2023-06-19T21:34:47.622Z,5.38
2023-06-19T21:39:51.615Z,6.13
2023-06-19T21:44:54.341Z,5.63
2023-06-19T21:49:57.234Z,4.90
2023-06-19T21:55:01.383Z,6.70
2023-06-19T22:00:05.843Z,7.72
2023-06-19T22:05:08.981Z,5.05
2023-06-19T22:10:13.656Z,5.95
2023-06-19T22:15:16.445Z,4.28
2023-06-19T22:20:19.402Z,4.97
2023-06-19T22:25:23.957Z,6.35
2023-06-19T22:30:27.006Z,5.13
2023-06-19T22:35:29.998Z,5.25
2023-06-19T22:40:34.655Z,5.30
2023-06-19T22:45:37.464Z,5.50
2023-06-19T22:50:40.198Z,6.50
2023-06-19T22:55:44.260Z,5.75
2023-06-19T23:00:47.672Z,5.82
2023-06-19T23:05:50.369Z,6.60
2023-06-19T23:10:54.426Z,9.02
2023-06-19T23:15:57.155Z,5.00
2023-06-19T23:20:59.865Z,5.13
2023-06-19T23:26:03.981Z,5.22
2023-06-19T23:31:07.118Z,6.03
2023-06-19T23:36:09.788Z,6.10
2023-06-19T23:41:13.798Z,7.78
2023-06-19T23:46:18.644Z,7.57
2023-06-19T23:51:21.663Z,4.85
2023-06-19T23:56:25.698Z,5.32
